NCAR-RAP Real-Time Weather Data

Output produced by METARs form (08 May 2021  16:57 UTC)
found at http://weather.rap.ucar.edu/surface/
 
KDFW 081553Z 19017G30KT 10SM BKN031 BKN210 26/17 A2990 RMK AO2 PK WND 20031/1542 SLP116 T02560172
KDFW 081523Z 20014G23KT 10SM BKN028 BKN210 25/17 A2990 RMK AO2 PK WND 19029/1458 T02500172
KDFW 081503Z COR 19017G29KT 10SM SCT024 BKN210 24/17 A2991 RMK AO2 PK WND 19029/1458 T02440167
KDFW 081453Z 20018G24KT 10SM BKN022 BKN029 BKN200 24/17 A2991 RMK AO2 PK WND 21030/1355 SLP120 T02390167 53010
KDFW 081430Z 21017KT 10SM BKN020 BKN200 22/17 A2991 RMK AO2 PK WND 21030/1355 T02220167
KDFW 081353Z 19019G28KT 10SM SCT012 BKN200 22/17 A2988 RMK AO2 PK WND 17033/1329 SLP111 T02170167
KDFW 081348Z 19021G31KT 10SM SCT012 BKN300 21/17 A2988 RMK AO2 PK WND 17033/1329
KDFW 081253Z 18016G22KT 10SM BKN013 BKN300 19/17 A2988 RMK AO2 SLP109 T01940167
KDFW 081153Z 19015KT 10SM FEW016 FEW150 SCT250 18/16 A2989 RMK AO2 SLP113 T01830156 10222 20178 56010
KDFW 081053Z 17010KT 10SM FEW150 BKN250 18/15 A2989 RMK AO2 SLP115 T01830150
KDFW 080953Z 18007KT 10SM BKN300 18/14 A2990 RMK AO2 SLP119 T01830144
KDFW 080853Z 18009KT 10SM SCT300 19/14 A2992 RMK AO2 SLP123 T01890139 58013
KDFW 080753Z 19012KT 10SM BKN300 21/14 A2993 RMK AO2 SLP127 T02060139
KDFW 080653Z 19014G24KT 10SM BKN300 22/13 A2995 RMK AO2 SLP134 T02170133
KDFW 080553Z 17012KT 10SM BKN300 22/14 A2995 RMK AO2 SLP135 T02170139 10283 20217 403060150 50001
KDFW 080453Z 16008KT 10SM BKN300 22/14 A2997 RMK AO2 SLP139 T02170139
KDFW 080353Z 16009KT 10SM BKN250 23/14 A2997 RMK AO2 SLP140 T02330139
KDFW 080253Z 16008KT 10SM BKN250 24/14 A2995 RMK AO2 SLP135 T02390139 53007
KDFW 080153Z 17015G24KT 10SM SCT250 25/13 A2992 RMK AO2 SLP123 T02500128
KDFW 080053Z 17015G24KT 10SM FEW250 27/13 A2992 RMK AO2 PK WND 18028/2358 SLP124 T02670133
KDFW 072353Z 17018G25KT 10SM FEW250 28/13 A2993 RMK AO2 PK WND 17026/2335 SLP129 T02830128 10306 20278 56030
KDFW 072253Z 17015KT 10SM FEW250 29/13 A2996 RMK AO2 PK WND 16028/2201 SLP136 T02940128
KDFW 072153Z 18014G25KT 10SM CLR 30/12 A2999 RMK AO2 SLP146 T03000117
KDFW 072053Z 16016G26KT 10SM SCT300 30/11 A3002 RMK AO2 PK WND 16028/2016 SLP158 T03000111 58037
KDFW 071953Z 17015G20KT 10SM SCT300 30/14 A3006 RMK AO2 SLP172 T03000144
KDFW 071853Z 17014G20KT 10SM SCT300 29/13 A3009 RMK AO2 SLP182 T02890133
KDFW 071753Z 17013KT 10SM FEW300 28/12 A3013 RMK AO2 SLP195 T02780117 10283 20150 58018
KDFW 071653Z 16012G19KT 10SM FEW300 26/13 A3016 RMK AO2 SLP206 T02560128
KDFW 071553Z 12012KT 10SM FEW300 24/11 A3018 RMK AO2 SLP212 T02440106
KDFW 071453Z 10010KT 10SM FEW300 24/09 A3018 RMK AO2 SLP214 T02390094 50005
KDFW 071353Z 10010KT 10SM SCT300 22/12 A3019 RMK AO2 SLP215 T02170117
KDFW 071253Z 08003KT 10SM SCT300 19/14 A3018 RMK AO2 SLP215 T01890139
KDFW 071153Z 09003KT 10SM FEW300 15/13 A3017 RMK AO2 SLP209 T01500128 10206 20150 53011
KDFW 071053Z 00000KT 10SM FEW300 16/12 A3015 RMK AO2 SLP203 T01610122
KDFW 070953Z 00000KT 10SM CLR 17/13 A3014 RMK AO2 SLP200 T01720128
KDFW 070853Z 11004KT 10SM CLR 18/13 A3014 RMK AO2 SLP197 T01780128 58009
KDFW 070753Z 00000KT 10SM CLR 17/12 A3014 RMK AO2 SLP201 T01720122
KDFW 070653Z 20003KT 10SM CLR 20/12 A3016 RMK AO2 SLP205 T02000122
KDFW 070553Z 19003KT 10SM CLR 21/12 A3016 RMK AO2 SLP207 T02060117 10272 20200 402830144 50003
KDFW 070453Z 00000KT 10SM CLR 21/12 A3016 RMK AO2 SLP207 T02110117
KDFW 070353Z 07003KT 10SM CLR 22/11 A3016 RMK AO2 SLP206 T02170111
KDFW 070253Z 04004KT 10SM CLR 22/11 A3015 RMK AO2 SLP204 T02220111 53008
KDFW 070153Z 02005KT 10SM CLR 24/12 A3014 RMK AO2 SLP200 T02390117
KDFW 070053Z 02006KT 10SM CLR 25/12 A3013 RMK AO2 SLP195 T02500117
KDFW 062353Z 04007KT 10SM CLR 27/11 A3013 RMK AO2 SLP196 T02720111 10283 20256 56013
KDFW 062253Z 36006KT 10SM FEW050 28/11 A3014 RMK AO2 SLP200 T02780111
KDFW 062153Z 01010KT 10SM FEW050 28/11 A3015 RMK AO2 SLP202 T02780111
KDFW 062053Z 03010KT 10SM CLR 27/09 A3017 RMK AO2 SLP209 T02720094 56019
KDFW 061953Z 02008KT 10SM CLR 27/09 A3019 RMK AO2 SLP216 T02720089
KDFW 061853Z 02011KT 10SM FEW003 FEW200 27/09 A3021 RMK AO2 SLP222 FU FEW003 SW-W T02670094
KDFW 061753Z 01006G15KT 10SM FEW120 26/06 A3023 RMK AO2 SLP229 T02610056 10267 20150 58001